Accueil
METAR-TAF:

METAR-TAF

Aéroports :

Lanvéoc, France

Base d'aéronautique navale de Lanvéoc-Poulmic

latitude: 48-17N, longitude: 004-26W, altitude: 87 m

Observation

Le bulletin a été fait il y a 20 minutes, à 00:30 UTC
Vent 6 kt de sud-ouest
Température 10°C
Humidité 87%
Pression 1021 hPa
Visibilité 10 km ou plus
Ciel couvert à une hauteur de 2600 ft

METAR: LFRL 240030Z AUTO 22006KT 9999 OVC026 10/08 Q1021

Heure: 02:50 (00:50 UTC)

Prévision

Le bulletin a été fait il y a 10 heures et 50 minutes, à 14:00 UTC
Prévision valable du 23 à 15 UTC au 23 à 24 UTC
Vent 8 kt de ouest
Visibilité 10 km ou plus
Ciel couvert à une hauteur de 3200 ft
Evoluant progressivement
du 23 à 19 UTC au 23 à 21 UTC
Nuages fragmentés à une hauteur de 1000 ft

TAF: LFRL 231400Z 2315/2324 26008KT 9999 OVC032 BECMG 2319/2321 BKN010

Observations et prévisions météorologiques de plus de 4000 aéroports (messages METAR et TAF).

Les stations disponibles sont représentées par des disques jaunes et rouges sur la carte.

Passer la souris dessus pour voir le nom de la station.

Cliquer dessus pour voir les observations et prévisions météorologiques.

Pour changer de carte: cliquez sur les boutons verts avec une croix noire pour zoomer, sur le bouton vert avec un tiret pour effectuer un zoom arrière, ou sur les flèches vertes pour les cartes adjacentes.


METAR-TAF: